createdAt,value
2019-03-30T00:00:32.955Z,84.50
2019-03-30T00:02:54.687Z,84.70
2019-03-30T00:05:15.370Z,84.70
2019-03-30T00:07:35.960Z,84.80
2019-03-30T00:09:56.526Z,85.20
2019-03-30T00:12:17.161Z,86.30
2019-03-30T00:14:39.700Z,85.70
2019-03-30T00:17:00.400Z,86.10
2019-03-30T00:19:34.139Z,86.40
2019-03-30T00:21:42.704Z,86.70
2019-03-30T00:24:03.298Z,86.40
2019-03-30T00:26:23.764Z,86.50
2019-03-30T00:28:44.245Z,86.70
2019-03-30T00:31:04.868Z,86.50
2019-03-30T00:33:25.396Z,86.90
2019-03-30T00:35:50.594Z,87.10
2019-03-30T00:38:11.352Z,87.20
2019-03-30T00:40:35.210Z,87.10
2019-03-30T00:42:55.754Z,86.90
2019-03-30T00:45:16.409Z,87.20
2019-03-30T00:47:36.874Z,87.50
2019-03-30T00:49:57.360Z,87.90
2019-03-30T00:52:17.897Z,87.90
2019-03-30T00:54:38.414Z,88.30
2019-03-30T00:56:58.914Z,89.20
2019-03-30T00:59:19.397Z,89.60
2019-03-30T01:01:39.844Z,89.80
2019-03-30T01:04:00.365Z,90.00
2019-03-30T01:06:21.754Z,90.00
2019-03-30T01:08:44.033Z,89.90
2019-03-30T01:11:07.474Z,90.00
2019-03-30T01:13:28.350Z,89.60
2019-03-30T01:15:48.975Z,89.50
2019-03-30T01:18:09.519Z,89.40
2019-03-30T01:20:30.101Z,89.60
2019-03-30T01:22:50.845Z,90.00
2019-03-30T01:25:11.683Z,90.40
2019-03-30T01:27:32.205Z,89.90
2019-03-30T01:29:53.818Z,90.00
2019-03-30T01:32:14.622Z,90.00
2019-03-30T01:34:35.167Z,90.00
2019-03-30T01:36:55.769Z,89.80
2019-03-30T01:39:16.584Z,90.00
2019-03-30T01:41:37.173Z,90.00
2019-03-30T01:43:57.714Z,90.10
2019-03-30T01:46:19.882Z,90.30
2019-03-30T01:48:40.408Z,90.40
2019-03-30T01:51:01.062Z,90.50
2019-03-30T01:53:21.603Z,90.10
2019-03-30T01:55:42.158Z,90.30
2019-03-30T01:58:04.257Z,90.50
2019-03-30T02:00:26.544Z,90.60
2019-03-30T02:02:46.689Z,90.80
2019-03-30T02:05:07.602Z,90.80
2019-03-30T02:07:28.361Z,90.80
2019-03-30T02:09:49.005Z,90.90
2019-03-30T02:12:09.549Z,90.90
2019-03-30T02:14:30.198Z,90.70
2019-03-30T02:16:50.729Z,90.80
2019-03-30T02:19:14.814Z,90.80
2019-03-30T02:21:36.349Z,91.00
2019-03-30T02:23:56.825Z,90.80
2019-03-30T02:26:17.311Z,90.90
2019-03-30T02:28:37.849Z,90.90
2019-03-30T02:30:58.457Z,91.20
2019-03-30T02:33:19.127Z,91.20
2019-03-30T02:35:39.608Z,91.40
2019-03-30T02:38:00.225Z,91.70
2019-03-30T02:40:20.839Z,91.30
2019-03-30T02:42:41.444Z,91.30
2019-03-30T02:45:02.140Z,91.60
2019-03-30T02:47:22.956Z,91.60
2019-03-30T02:49:43.601Z,91.60
2019-03-30T02:52:04.358Z,91.60
2019-03-30T02:54:24.889Z,91.60
2019-03-30T02:56:45.485Z,91.60
2019-03-30T02:59:07.129Z,91.50
2019-03-30T03:01:27.694Z,91.60
2019-03-30T03:03:48.279Z,91.80
2019-03-30T03:06:08.808Z,92.10
2019-03-30T03:08:29.470Z,92.10
2019-03-30T03:10:53.896Z,92.30
2019-03-30T03:13:14.495Z,92.00
2019-03-30T03:15:35.144Z,92.20
2019-03-30T03:17:55.683Z,91.90
2019-03-30T03:20:16.385Z,92.10
2019-03-30T03:22:37.098Z,92.30
2019-03-30T03:24:57.656Z,92.50
2019-03-30T03:27:18.200Z,92.70
2019-03-30T03:29:44.506Z,92.60
2019-03-30T03:32:06.821Z,93.00
2019-03-30T03:34:27.150Z,93.10
2019-03-30T03:36:47.672Z,93.00
2019-03-30T03:39:08.284Z,93.20
2019-03-30T03:41:28.903Z,93.30
2019-03-30T03:43:49.420Z,93.10
2019-03-30T03:46:10.597Z,93.30
2019-03-30T03:48:31.134Z,93.70
2019-03-30T03:50:54.912Z,93.40
2019-03-30T03:53:16.810Z,93.00
2019-03-30T03:55:38.574Z,92.80
2019-03-30T03:58:01.117Z,92.80
2019-03-30T04:00:21.716Z,93.30
2019-03-30T04:02:42.783Z,93.00
2019-03-30T04:05:03.708Z,93.00
2019-03-30T04:07:24.638Z,93.00
2019-03-30T04:09:48.415Z,93.00
2019-03-30T04:12:09.051Z,93.10
2019-03-30T04:14:32.505Z,93.20
2019-03-30T04:16:53.372Z,93.10
2019-03-30T04:19:16.997Z,93.10
2019-03-30T04:21:44.317Z,93.00
2019-03-30T04:23:59.223Z,93.20
2019-03-30T04:26:19.878Z,93.30
2019-03-30T04:28:40.502Z,93.40
2019-03-30T04:31:02.161Z,93.40
2019-03-30T04:33:22.727Z,93.40
2019-03-30T04:35:43.350Z,93.30
2019-03-30T04:38:04.104Z,93.40
2019-03-30T04:40:24.666Z,93.30
2019-03-30T04:42:45.130Z,93.40
2019-03-30T04:45:07.316Z,93.40
2019-03-30T04:47:27.325Z,93.50
2019-03-30T04:49:47.855Z,93.70
2019-03-30T04:52:08.340Z,93.60
2019-03-30T04:54:28.952Z,93.40
2019-03-30T04:56:49.505Z,93.30
2019-03-30T04:59:10.038Z,93.30
2019-03-30T05:01:30.605Z,93.50
2019-03-30T05:03:51.228Z,93.60
2019-03-30T05:06:12.796Z,93.40
2019-03-30T05:08:33.331Z,93.30
2019-03-30T05:10:55.098Z,93.70
2019-03-30T05:13:15.965Z,93.20
2019-03-30T05:15:36.688Z,93.30
2019-03-30T05:17:59.128Z,93.40
2019-03-30T05:20:19.558Z,93.20
2019-03-30T05:22:40.069Z,93.50
2019-03-30T05:25:00.880Z,93.50
2019-03-30T05:27:21.483Z,93.80
2019-03-30T05:29:42.047Z,93.70
2019-03-30T05:32:02.552Z,93.70
2019-03-30T05:34:23.092Z,93.80
2019-03-30T05:36:43.625Z,93.80
2019-03-30T05:39:05.808Z,93.30
2019-03-30T05:41:26.341Z,92.90
2019-03-30T05:43:46.845Z,92.70
2019-03-30T05:46:07.409Z,92.70
2019-03-30T05:48:29.054Z,92.50
2019-03-30T05:50:49.738Z,92.30
2019-03-30T05:53:11.442Z,92.40
2019-03-30T05:55:32.050Z,92.30
2019-03-30T05:57:52.740Z,92.10
2019-03-30T06:00:15.481Z,91.80
2019-03-30T06:02:35.894Z,91.70
2019-03-30T06:04:58.593Z,91.50
2019-03-30T06:07:18.038Z,91.70
2019-03-30T06:09:38.705Z,91.20
2019-03-30T06:12:00.550Z,91.10
2019-03-30T06:14:21.091Z,91.10
2019-03-30T06:16:41.731Z,91.00
2019-03-30T06:19:02.283Z,90.80
2019-03-30T06:21:23.035Z,90.50
2019-03-30T06:23:43.758Z,90.40
2019-03-30T06:26:04.502Z,90.00
2019-03-30T06:28:25.130Z,89.80
2019-03-30T06:30:45.681Z,88.80
2019-03-30T06:33:06.323Z,86.50
2019-03-30T06:35:26.862Z,84.00
2019-03-30T06:37:50.211Z,80.00
2019-03-30T06:40:10.999Z,76.90
2019-03-30T06:42:31.529Z,74.50
2019-03-30T06:44:52.097Z,72.20
2019-03-30T06:47:12.599Z,71.10
2019-03-30T06:49:33.054Z,70.30
2019-03-30T06:51:53.702Z,70.30
2019-03-30T06:54:14.950Z,68.70
2019-03-30T06:56:35.729Z,67.20
2019-03-30T06:58:55.903Z,65.70
2019-03-30T07:01:15.983Z,65.40
2019-03-30T07:03:36.093Z,64.60
2019-03-30T07:05:57.993Z,62.90
2019-03-30T07:08:18.235Z,62.00
2019-03-30T07:10:39.323Z,61.80
2019-03-30T07:13:02.986Z,62.30
2019-03-30T07:15:24.879Z,60.90
2019-03-30T07:17:46.724Z,60.40
2019-03-30T07:20:10.862Z,58.60
2019-03-30T07:22:30.817Z,56.60
2019-03-30T07:24:51.175Z,55.70
2019-03-30T07:27:11.362Z,54.90
2019-03-30T07:29:31.693Z,52.30
2019-03-30T07:31:52.244Z,50.10
2019-03-30T07:34:12.499Z,48.20
2019-03-30T07:36:32.710Z,47.30
2019-03-30T07:38:53.081Z,46.70
2019-03-30T07:41:15.398Z,46.20
2019-03-30T07:43:36.205Z,46.20
2019-03-30T07:45:56.580Z,45.80
2019-03-30T07:48:16.770Z,44.40
2019-03-30T07:50:37.489Z,44.20
2019-03-30T07:53:00.547Z,43.80
2019-03-30T07:55:19.685Z,42.00
2019-03-30T07:57:39.505Z,42.10
2019-03-30T07:59:59.502Z,41.40
2019-03-30T08:02:20.130Z,40.90
2019-03-30T08:04:40.379Z,43.80
2019-03-30T08:07:01.108Z,43.60
2019-03-30T08:09:21.713Z,44.70
2019-03-30T08:11:42.855Z,44.60
2019-03-30T08:14:03.252Z,45.90
2019-03-30T08:16:28.913Z,46.40
2019-03-30T08:18:49.155Z,44.70
2019-03-30T08:21:09.619Z,43.20
2019-03-30T08:23:40.313Z,43.30
2019-03-30T08:25:52.065Z,42.80
2019-03-30T08:28:13.885Z,41.60
2019-03-30T08:30:35.379Z,41.30
2019-03-30T08:32:57.594Z,40.40
2019-03-30T08:35:19.228Z,38.50
2019-03-30T08:37:39.481Z,38.50
2019-03-30T08:39:59.825Z,36.80
2019-03-30T08:42:21.197Z,38.70
2019-03-30T08:44:41.430Z,39.20
2019-03-30T08:47:01.626Z,37.30
2019-03-30T08:49:21.894Z,36.70
2019-03-30T08:51:42.174Z,37.90
2019-03-30T08:54:04.448Z,39.10
2019-03-30T08:56:28.010Z,39.50
2019-03-30T08:58:47.144Z,40.00
2019-03-30T09:01:07.188Z,39.00
2019-03-30T09:03:27.248Z,39.30
2019-03-30T09:05:47.360Z,41.00
2019-03-30T09:08:07.537Z,39.70
2019-03-30T09:10:27.967Z,39.80
2019-03-30T09:12:48.247Z,39.60
2019-03-30T09:15:09.550Z,39.90
2019-03-30T09:17:29.728Z,40.00
2019-03-30T09:19:49.938Z,40.30
2019-03-30T09:22:10.252Z,39.30
2019-03-30T09:24:40.276Z,39.60
2019-03-30T09:27:02.645Z,38.80
2019-03-30T09:29:22.644Z,38.60
2019-03-30T09:31:43.689Z,39.90
2019-03-30T09:34:03.733Z,40.80
2019-03-30T09:36:25.389Z,39.40
2019-03-30T09:38:45.593Z,38.40
2019-03-30T09:41:07.123Z,37.50
2019-03-30T09:43:27.832Z,38.30
2019-03-30T09:45:48.388Z,39.30
2019-03-30T09:48:08.791Z,38.30
2019-03-30T09:50:29.221Z,38.60
2019-03-30T09:52:51.159Z,39.60
2019-03-30T09:55:11.576Z,39.00
2019-03-30T09:57:31.971Z,38.00
2019-03-30T09:59:52.176Z,39.70
2019-03-30T10:02:13.477Z,39.70
2019-03-30T10:04:33.732Z,38.90
2019-03-30T10:06:54.135Z,40.30
2019-03-30T10:09:14.493Z,40.00
2019-03-30T10:11:34.812Z,38.60
2019-03-30T10:13:55.243Z,38.40
2019-03-30T10:16:15.423Z,37.90
2019-03-30T10:18:35.948Z,38.30
2019-03-30T10:20:56.196Z,38.20
2019-03-30T10:23:16.580Z,37.30
2019-03-30T10:25:36.847Z,38.10
2019-03-30T10:27:57.045Z,39.00
2019-03-30T10:30:17.401Z,39.20
2019-03-30T10:32:37.752Z,38.50
2019-03-30T10:34:58.144Z,38.50
2019-03-30T10:37:18.366Z,38.80
2019-03-30T10:39:38.661Z,40.50
2019-03-30T10:41:58.979Z,39.80
2019-03-30T10:44:19.390Z,38.40
2019-03-30T10:46:39.680Z,37.90
2019-03-30T10:48:59.942Z,37.70
2019-03-30T10:51:20.229Z,37.10
2019-03-30T10:53:42.500Z,35.60
2019-03-30T10:56:02.432Z,34.90
2019-03-30T10:58:22.523Z,36.00
2019-03-30T11:00:42.832Z,35.20
2019-03-30T11:03:02.801Z,33.60
2019-03-30T11:05:22.754Z,35.50
2019-03-30T11:07:42.689Z,35.00
2019-03-30T11:10:06.700Z,33.80
2019-03-30T11:12:27.057Z,34.80
2019-03-30T11:14:47.366Z,33.60
2019-03-30T11:17:19.246Z,34.10
2019-03-30T11:19:38.582Z,33.10
2019-03-30T11:21:58.768Z,33.10
2019-03-30T11:24:19.161Z,32.80
2019-03-30T11:26:39.383Z,34.50
2019-03-30T11:28:59.615Z,35.30
2019-03-30T11:31:22.680Z,35.40
2019-03-30T11:33:44.262Z,34.00
2019-03-30T11:36:04.603Z,32.50
2019-03-30T11:38:26.995Z,32.30
2019-03-30T11:40:47.286Z,32.80
2019-03-30T11:43:07.830Z,33.60
2019-03-30T11:45:28.181Z,34.00
2019-03-30T11:47:48.433Z,34.00
2019-03-30T11:50:08.841Z,33.80
2019-03-30T11:52:29.148Z,33.40
2019-03-30T11:54:49.310Z,32.50
2019-03-30T11:57:10.646Z,31.40
2019-03-30T11:59:30.923Z,31.80
2019-03-30T12:01:51.233Z,30.70
2019-03-30T12:04:11.518Z,31.60
2019-03-30T12:06:31.707Z,31.90
2019-03-30T12:08:52.093Z,31.30
2019-03-30T12:11:12.602Z,30.90
2019-03-30T12:13:32.854Z,31.00
2019-03-30T12:15:53.028Z,29.60
2019-03-30T12:18:17.243Z,30.50
2019-03-30T12:20:38.495Z,31.50
2019-03-30T12:22:58.826Z,30.20
2019-03-30T12:25:19.424Z,30.00
2019-03-30T12:27:39.858Z,29.80
2019-03-30T12:30:00.483Z,28.60
2019-03-30T12:32:20.933Z,28.20
2019-03-30T12:34:41.691Z,26.50
2019-03-30T12:37:01.949Z,25.60
2019-03-30T12:39:23.877Z,25.60
2019-03-30T12:41:44.292Z,25.30
2019-03-30T12:44:04.706Z,24.90
2019-03-30T12:46:25.164Z,24.30
2019-03-30T12:48:45.466Z,25.40
2019-03-30T12:51:06.121Z,25.60
2019-03-30T12:53:26.730Z,26.40
2019-03-30T12:55:49.531Z,26.30
2019-03-30T12:58:09.106Z,25.80
2019-03-30T13:00:29.378Z,25.70
2019-03-30T13:02:52.487Z,24.50
2019-03-30T13:05:11.782Z,24.60
2019-03-30T13:07:33.149Z,25.60
2019-03-30T13:09:54.742Z,24.70
2019-03-30T13:12:16.097Z,23.50
2019-03-30T13:14:36.257Z,22.60
2019-03-30T13:16:56.162Z,22.70
2019-03-30T13:19:16.114Z,23.10
2019-03-30T13:21:36.165Z,22.60
2019-03-30T13:23:56.624Z,22.20
2019-03-30T13:26:17.228Z,22.10
2019-03-30T13:28:37.547Z,23.00
2019-03-30T13:30:58.023Z,23.70
2019-03-30T13:33:18.347Z,22.90
2019-03-30T13:35:38.272Z,21.60
2019-03-30T13:37:58.435Z,22.10
2019-03-30T13:40:18.917Z,21.50
2019-03-30T13:42:39.320Z,22.60
2019-03-30T13:45:03.021Z,22.00
2019-03-30T13:47:21.667Z,22.30
2019-03-30T13:49:41.900Z,22.80
2019-03-30T13:52:02.120Z,22.10
2019-03-30T13:54:22.600Z,21.90
2019-03-30T13:56:43.804Z,22.20
2019-03-30T13:59:04.159Z,22.40
2019-03-30T14:01:24.455Z,22.40
2019-03-30T14:03:44.810Z,22.50
2019-03-30T14:06:05.064Z,21.90
2019-03-30T14:08:25.356Z,21.80
2019-03-30T14:10:45.728Z,22.00
2019-03-30T14:13:06.255Z,22.00
2019-03-30T14:15:26.655Z,22.80
2019-03-30T14:17:46.893Z,23.60
2019-03-30T14:20:07.654Z,23.70
2019-03-30T14:22:27.931Z,23.10
2019-03-30T14:24:48.115Z,23.30
2019-03-30T14:27:08.598Z,23.10
2019-03-30T14:29:28.795Z,22.80
2019-03-30T14:31:49.308Z,24.20
2019-03-30T14:34:09.610Z,23.50
2019-03-30T14:36:41.949Z,23.30
2019-03-30T14:39:00.484Z,22.90
2019-03-30T14:41:21.092Z,22.60
2019-03-30T14:43:41.300Z,23.40
2019-03-30T14:46:01.582Z,23.50
2019-03-30T14:48:21.947Z,23.80
2019-03-30T14:50:42.191Z,24.20
2019-03-30T14:53:02.706Z,24.20
2019-03-30T14:55:23.150Z,23.60
2019-03-30T14:57:43.387Z,23.30
2019-03-30T15:00:04.601Z,23.10
2019-03-30T15:02:24.930Z,22.20
2019-03-30T15:04:45.301Z,22.50
2019-03-30T15:07:05.553Z,22.60
2019-03-30T15:09:25.853Z,23.40
2019-03-30T15:11:46.034Z,23.10
2019-03-30T15:14:07.527Z,22.90
2019-03-30T15:16:27.852Z,22.60
2019-03-30T15:18:48.147Z,22.60
2019-03-30T15:21:10.624Z,22.10
2019-03-30T15:23:30.973Z,22.20
2019-03-30T15:25:50.844Z,22.20
2019-03-30T15:28:10.820Z,23.50
2019-03-30T15:30:30.819Z,24.20
2019-03-30T15:32:50.794Z,25.20
2019-03-30T15:35:10.991Z,24.50
2019-03-30T15:37:32.977Z,25.10
2019-03-30T15:39:53.593Z,24.50
2019-03-30T15:42:13.666Z,23.50
2019-03-30T15:44:33.631Z,24.20
2019-03-30T15:46:53.511Z,24.40
2019-03-30T15:49:16.154Z,24.60
2019-03-30T15:51:37.549Z,24.80
2019-03-30T15:53:58.416Z,26.30
2019-03-30T15:56:18.565Z,26.90
2019-03-30T15:58:38.829Z,27.10
2019-03-30T16:00:58.844Z,27.50
2019-03-30T16:03:19.167Z,28.10
2019-03-30T16:05:39.628Z,29.30
2019-03-30T16:07:59.927Z,30.00
2019-03-30T16:10:21.894Z,30.20
2019-03-30T16:12:42.556Z,30.40
2019-03-30T16:15:06.010Z,30.90
2019-03-30T16:17:26.309Z,30.60
2019-03-30T16:19:48.273Z,31.30
2019-03-30T16:22:08.614Z,31.40
2019-03-30T16:24:30.201Z,32.10
2019-03-30T16:26:51.668Z,33.10
2019-03-30T16:29:12.204Z,33.80
2019-03-30T16:31:32.508Z,34.00
2019-03-30T16:33:52.934Z,34.00
2019-03-30T16:36:13.454Z,34.30
2019-03-30T16:38:33.781Z,34.40
2019-03-30T16:40:54.036Z,34.70
2019-03-30T16:43:14.305Z,34.90
2019-03-30T16:45:34.552Z,35.20
2019-03-30T16:47:54.952Z,35.60
2019-03-30T16:50:15.276Z,35.70
2019-03-30T16:52:35.482Z,36.00
2019-03-30T16:54:55.729Z,36.30
2019-03-30T16:57:16.050Z,36.80
2019-03-30T16:59:36.812Z,37.00
2019-03-30T17:01:57.047Z,37.40
2019-03-30T17:04:17.272Z,37.50
2019-03-30T17:06:37.560Z,37.60
2019-03-30T17:09:07.583Z,38.40
2019-03-30T17:11:27.904Z,38.00
2019-03-30T17:13:48.268Z,38.20
2019-03-30T17:16:08.728Z,38.40
2019-03-30T17:18:28.998Z,38.90
2019-03-30T17:20:49.206Z,38.80
2019-03-30T17:23:09.469Z,38.90
2019-03-30T17:25:29.730Z,39.30
2019-03-30T17:27:58.286Z,39.50
2019-03-30T17:30:12.261Z,39.90
2019-03-30T17:32:32.844Z,40.50
2019-03-30T17:34:52.811Z,40.70
2019-03-30T17:37:14.468Z,41.60
2019-03-30T17:39:35.300Z,42.90
2019-03-30T17:41:55.996Z,43.90
2019-03-30T17:44:16.065Z,44.70
2019-03-30T17:46:36.045Z,45.20
2019-03-30T17:48:56.173Z,45.80
2019-03-30T17:51:16.637Z,46.50
2019-03-30T17:53:39.459Z,47.10
2019-03-30T17:56:01.847Z,47.60
2019-03-30T17:58:21.162Z,48.30
2019-03-30T18:00:43.333Z,49.00
2019-03-30T18:03:03.395Z,49.50
2019-03-30T18:05:26.809Z,49.60
2019-03-30T18:07:46.144Z,50.10
2019-03-30T18:10:07.680Z,50.60
2019-03-30T18:12:27.882Z,51.00
2019-03-30T18:14:50.066Z,51.20
2019-03-30T18:17:10.695Z,51.50
2019-03-30T18:19:33.303Z,51.80
2019-03-30T18:21:53.835Z,51.80
2019-03-30T18:24:13.894Z,52.10
2019-03-30T18:26:35.442Z,52.40
2019-03-30T18:28:57.658Z,52.60
2019-03-30T18:31:20.080Z,52.80
2019-03-30T18:33:40.229Z,53.20
2019-03-30T18:36:00.808Z,53.30
2019-03-30T18:38:21.941Z,53.40
2019-03-30T18:40:42.565Z,53.80
2019-03-30T18:43:05.440Z,54.10
2019-03-30T18:45:27.997Z,53.90
2019-03-30T18:47:48.918Z,54.70
2019-03-30T18:50:09.816Z,55.10
2019-03-30T18:52:31.095Z,55.40
2019-03-30T18:54:52.233Z,55.10
2019-03-30T18:57:13.300Z,55.10
2019-03-30T18:59:33.350Z,55.20
2019-03-30T19:01:53.403Z,55.60
2019-03-30T19:04:14.083Z,56.00
2019-03-30T19:06:34.596Z,56.00
2019-03-30T19:08:55.143Z,56.10
2019-03-30T19:11:15.695Z,56.50
2019-03-30T19:13:36.223Z,57.00
2019-03-30T19:15:56.719Z,57.60
2019-03-30T19:18:17.302Z,56.90
2019-03-30T19:20:37.894Z,56.80
2019-03-30T19:22:58.536Z,57.10
2019-03-30T19:25:20.032Z,57.60
2019-03-30T19:27:43.173Z,57.50
2019-03-30T19:30:09.857Z,57.40
2019-03-30T19:32:30.314Z,57.50
2019-03-30T19:34:51.387Z,57.60
2019-03-30T19:37:12.099Z,58.10
2019-03-30T19:39:32.643Z,58.40
2019-03-30T19:41:53.301Z,58.60
2019-03-30T19:44:13.831Z,58.90
2019-03-30T19:46:36.813Z,59.00
2019-03-30T19:48:57.190Z,58.90
2019-03-30T19:51:17.791Z,58.90
2019-03-30T19:53:38.328Z,59.10
2019-03-30T19:55:59.078Z,59.40
2019-03-30T19:58:19.608Z,60.70
2019-03-30T20:00:40.290Z,60.60
2019-03-30T20:03:00.919Z,60.60
2019-03-30T20:05:22.483Z,62.00
2019-03-30T20:07:42.999Z,61.90
2019-03-30T20:10:05.139Z,61.50
2019-03-30T20:12:25.833Z,61.80
2019-03-30T20:14:46.615Z,62.50
2019-03-30T20:17:07.183Z,63.30
2019-03-30T20:19:28.016Z,63.60
2019-03-30T20:21:48.549Z,63.10
2019-03-30T20:24:09.309Z,62.30
2019-03-30T20:26:30.965Z,64.10
2019-03-30T20:28:52.690Z,63.90
2019-03-30T20:31:13.241Z,63.30
2019-03-30T20:33:35.950Z,63.60
2019-03-30T20:35:56.512Z,64.40
2019-03-30T20:38:17.080Z,64.70
2019-03-30T20:40:40.372Z,65.10
2019-03-30T20:43:01.001Z,65.20
2019-03-30T20:45:21.629Z,64.90
2019-03-30T20:47:42.352Z,64.70
2019-03-30T20:50:03.064Z,64.90
2019-03-30T20:52:23.611Z,65.60
2019-03-30T20:54:45.227Z,66.10
2019-03-30T20:57:12.693Z,65.90
2019-03-30T20:59:40.017Z,65.80
2019-03-30T21:01:55.503Z,67.10
2019-03-30T21:04:16.049Z,67.50
2019-03-30T21:06:38.640Z,66.40
2019-03-30T21:08:59.707Z,66.70
2019-03-30T21:11:22.602Z,66.90
2019-03-30T21:13:44.488Z,67.70
2019-03-30T21:16:17.045Z,67.70
2019-03-30T21:18:37.688Z,67.40
2019-03-30T21:20:58.274Z,67.50
2019-03-30T21:23:19.098Z,67.50
2019-03-30T21:25:39.672Z,67.80
2019-03-30T21:28:00.455Z,68.10
2019-03-30T21:30:21.120Z,68.30
2019-03-30T21:32:41.798Z,69.20
2019-03-30T21:35:05.855Z,69.30
2019-03-30T21:37:26.227Z,69.70
2019-03-30T21:39:46.777Z,69.70
2019-03-30T21:42:07.341Z,70.00
2019-03-30T21:44:27.941Z,70.80
2019-03-30T21:46:48.578Z,70.90
2019-03-30T21:49:09.188Z,70.70
2019-03-30T21:51:33.248Z,71.00
2019-03-30T21:53:54.077Z,71.00
2019-03-30T21:56:14.723Z,70.80
2019-03-30T21:58:35.248Z,70.90
2019-03-30T22:00:59.941Z,71.00
2019-03-30T22:03:20.724Z,71.30
2019-03-30T22:05:41.331Z,72.00
2019-03-30T22:08:02.875Z,72.30
2019-03-30T22:10:29.619Z,72.20
2019-03-30T22:12:50.131Z,72.10
2019-03-30T22:15:10.932Z,72.40
2019-03-30T22:17:31.523Z,72.70
2019-03-30T22:19:52.311Z,73.10
2019-03-30T22:22:12.908Z,73.30
2019-03-30T22:24:33.509Z,73.30
2019-03-30T22:26:54.131Z,73.10
2019-03-30T22:29:14.756Z,73.10
2019-03-30T22:31:35.253Z,73.50
2019-03-30T22:33:56.868Z,73.60
2019-03-30T22:36:17.608Z,74.00
2019-03-30T22:38:38.117Z,74.10
2019-03-30T22:40:59.046Z,74.30
2019-03-30T22:43:20.076Z,74.20
2019-03-30T22:45:41.121Z,74.50
2019-03-30T22:48:04.615Z,74.80
2019-03-30T22:50:25.451Z,75.30
2019-03-30T22:52:51.612Z,75.30
2019-03-30T22:55:14.461Z,75.30
2019-03-30T22:57:34.736Z,75.40
2019-03-30T22:59:55.654Z,75.70
2019-03-30T23:02:27.901Z,75.90
2019-03-30T23:04:49.288Z,76.40
2019-03-30T23:07:10.333Z,76.20
2019-03-30T23:09:31.597Z,76.10
2019-03-30T23:11:52.402Z,76.30
2019-03-30T23:14:13.274Z,76.30
2019-03-30T23:16:37.336Z,76.80
2019-03-30T23:18:58.025Z,76.90
2019-03-30T23:21:19.063Z,77.00
2019-03-30T23:23:40.270Z,77.10
2019-03-30T23:26:01.209Z,77.30
2019-03-30T23:28:22.241Z,77.60
2019-03-30T23:30:53.991Z,77.60
2019-03-30T23:33:07.571Z,77.80
2019-03-30T23:35:28.640Z,78.40
2019-03-30T23:37:49.618Z,78.40
2019-03-30T23:40:10.646Z,78.50
2019-03-30T23:42:31.377Z,78.80
2019-03-30T23:44:51.992Z,79.10
2019-03-30T23:47:12.672Z,79.40
2019-03-30T23:49:33.268Z,79.90
2019-03-30T23:51:53.860Z,79.80
2019-03-30T23:54:18.075Z,79.60
2019-03-30T23:56:38.554Z,79.30
2019-03-30T23:58:59.159Z,79.30
